Time;durP1;ratioP1;P1;durP2;ratioP2;P2;SDS_P1;SDS_P2;PMS_P1;PMS_P2;Temp;Humidity;BMP_temperature;BMP_pressure;BME280_temperature;BME280_humidity;BME280_pressure;Samples;Min_cycle;Max_cycle;Signal;HPM_P1;HPM_P2
2022/03/11 00:02:19;;;;;;;26.48;5.85;;;;;;;5.82;48.32;98630.06;5003683;28;20022;-64
2022/03/11 00:04:45;;;;;;;15.73;6.00;;;;;;;5.71;49.46;98627.41;4996536;28;20019;-64
2022/03/11 00:07:11;;;;;;;10.23;4.70;;;;;;;5.55;49.57;98624.78;5004652;28;20029;-64
2022/03/11 00:09:37;;;;;;;21.13;6.47;;;;;;;5.41;49.69;98621.31;5004456;28;20027;-64
2022/03/11 00:12:03;;;;;;;19.55;5.82;;;;;;;5.37;49.71;98619.53;5004405;28;20034;-64
2022/03/11 00:14:29;;;;;;;17.40;5.40;;;;;;;5.20;50.62;98621.28;5004445;28;20210;-64
2022/03/11 00:16:54;;;;;;;15.20;5.00;;;;;;;5.17;50.63;98616.06;5004819;28;20086;-64
2022/03/11 00:19:19;;;;;;;14.68;5.28;;;;;;;4.97;51.66;98617.75;5004941;28;20213;-64
2022/03/11 00:21:45;;;;;;;10.40;4.35;;;;;;;4.78;51.97;98615.97;5004615;28;20022;-64
2022/03/11 00:24:10;;;;;;;16.42;6.03;;;;;;;4.65;52.32;98606.38;5004483;28;20026;-64
2022/03/11 00:26:36;;;;;;;19.40;6.05;;;;;;;4.40;53.44;98624.50;5003947;28;20022;-64
2022/03/11 00:29:01;;;;;;;12.65;6.05;;;;;;;4.55;52.30;98622.84;5004430;28;20282;-64
2022/03/11 00:31:28;;;;;;;10.88;5.13;;;;;;;4.41;53.26;98614.97;5004407;28;20014;-64
2022/03/11 00:33:54;;;;;;;13.88;6.40;;;;;;;4.56;52.07;98614.16;5004323;28;20022;-64
2022/03/11 00:36:19;;;;;;;12.20;4.97;;;;;;;4.53;52.57;98619.34;5007037;28;20025;-64
2022/03/11 00:38:45;;;;;;;10.68;5.00;;;;;;;4.43;53.04;98614.09;5008106;28;20089;-64
2022/03/11 00:41:11;;;;;;;22.08;6.03;;;;;;;4.10;54.63;98605.25;5007738;28;20033;-64
2022/03/11 00:43:36;;;;;;;11.02;4.93;;;;;;;3.97;55.77;98604.31;5007842;28;20037;-64
2022/03/11 00:46:02;;;;;;;8.95;4.53;;;;;;;3.81;56.18;98618.09;5007844;28;20018;-64
2022/03/11 00:48:27;;;;;;;12.68;4.80;;;;;;;3.51;57.12;98615.25;5007972;28;20041;-64
2022/03/11 00:50:53;;;;;;;15.00;6.78;;;;;;;3.56;56.57;98613.56;5007928;28;20083;-64
2022/03/11 00:53:19;;;;;;;22.40;6.05;;;;;;;3.53;56.95;98613.53;5008040;28;20026;-64
2022/03/11 00:55:44;;;;;;;12.85;5.30;;;;;;;3.49;56.64;98606.59;5007900;28;20037;-64
2022/03/11 00:58:10;;;;;;;11.75;4.75;;;;;;;3.23;57.90;98608.06;5007969;28;20022;-64
2022/03/11 01:00:35;;;;;;;12.75;5.28;;;;;;;3.24;57.58;98609.84;5007585;28;20015;-64
2022/03/11 01:03:00;;;;;;;13.90;6.82;;;;;;;3.08;58.83;98613.16;5006272;28;20022;-64
2022/03/11 01:05:26;;;;;;;14.32;5.75;;;;;;;3.01;59.13;98616.53;5007118;28;20233;-64
2022/03/11 01:07:52;;;;;;;10.20;4.78;;;;;;;2.81;59.59;98602.47;5007789;28;20022;-64
2022/03/11 01:10:18;;;;;;;14.38;5.90;;;;;;;2.80;58.90;98611.13;5008134;28;20304;-64
2022/03/11 01:12:44;;;;;;;12.30;5.93;;;;;;;2.91;58.36;98614.69;5007906;28;20026;-64
2022/03/11 01:15:10;;;;;;;12.35;5.93;;;;;;;2.71;59.94;98600.63;5007554;28;20287;-64
2022/03/11 01:17:36;;;;;;;11.35;5.38;;;;;;;2.63;59.31;98602.28;5007920;28;20030;-64
2022/03/11 01:20:03;;;;;;;12.68;4.80;;;;;;;2.49;60.04;98601.25;5007203;28;20362;-64
2022/03/11 01:22:29;;;;;;;9.65;4.50;;;;;;;2.33;60.87;98606.22;5007429;28;20026;-64
2022/03/11 01:24:55;;;;;;;13.23;5.78;;;;;;;2.22;61.30;98603.53;5007238;28;20249;-64
2022/03/11 01:27:20;;;;;;;9.88;5.13;;;;;;;2.11;61.90;98599.91;5007252;28;20025;-64
2022/03/11 01:29:45;;;;;;;15.35;7.25;;;;;;;1.72;63.78;98588.97;5007222;28;20022;-64
2022/03/11 01:32:11;;;;;;;41.55;15.25;;;;;;;1.53;64.73;98584.38;5007108;28;20361;-64
2022/03/11 01:34:36;;;;;;;12.85;5.50;;;;;;;1.60;64.68;98592.25;5007247;28;20037;-64
2022/03/11 01:37:02;;;;;;;21.10;8.10;;;;;;;1.60;65.14;98578.41;5007218;28;20036;-64
2022/03/11 01:39:27;;;;;;;14.02;5.93;;;;;;;1.51;65.89;98588.66;5007077;28;20053;-64
2022/03/11 01:41:52;;;;;;;12.75;5.80;;;;;;;1.43;66.57;98585.94;5007094;28;20089;-64
2022/03/11 01:44:18;;;;;;;14.65;5.47;;;;;;;1.33;66.63;98588.38;5006996;28;20026;-64
2022/03/11 01:46:43;;;;;;;14.38;6.80;;;;;;;1.27;67.15;98580.50;5007024;28;20376;-64
2022/03/11 01:49:10;;;;;;;13.15;5.95;;;;;;;1.25;67.25;98590.84;5007103;28;20322;-64
2022/03/11 01:51:41;;;;;;;18.42;5.88;;;;;;;1.25;66.68;98584.78;5007116;28;20030;-64
2022/03/11 01:54:09;;;;;;;13.77;6.00;;;;;;;1.18;67.08;98589.00;5007012;28;20023;-64
2022/03/11 01:56:36;;;;;;;12.85;6.20;;;;;;;1.10;67.00;98581.94;5006695;28;20046;-64
2022/03/11 01:59:02;;;;;;;15.60;6.40;;;;;;;1.01;67.54;98574.88;5006927;28;20029;-64
2022/03/11 02:01:27;;;;;;;17.42;5.80;;;;;;;1.00;67.30;98574.84;5006262;28;20084;-64
2022/03/11 02:03:53;;;;;;;11.80;5.93;;;;;;;1.02;66.89;98580.94;5006265;28;20033;-64
2022/03/11 02:06:19;;;;;;;10.73;4.97;;;;;;;0.96;67.36;98570.47;5006110;28;20089;-64
2022/03/11 02:08:45;;;;;;;6.32;4.15;;;;;;;0.96;67.03;98578.25;5005959;28;20082;-64
2022/03/11 02:11:11;;;;;;;11.35;4.25;;;;;;;0.89;67.39;98579.84;5005777;28;20054;-64
2022/03/11 02:13:46;;;;;;;8.25;4.32;;;;;;;0.65;68.64;98574.25;5005549;28;20022;-64
2022/03/11 02:16:17;;;;;;;7.60;4.32;;;;;;;0.66;68.38;98578.56;5005848;28;20029;-64
2022/03/11 02:18:43;;;;;;;11.82;4.50;;;;;;;0.59;69.22;98574.13;5005647;28;20114;-64
2022/03/11 02:21:09;;;;;;;13.52;4.75;;;;;;;0.64;69.42;98574.22;5005585;28;20030;-63
2022/03/11 02:23:57;;;;;;;14.40;5.60;;;;;;;0.55;69.69;98571.44;5005517;28;20333;-64
2022/03/11 02:26:24;;;;;;;16.52;6.72;;;;;;;0.42;69.42;98566.88;5005816;28;20241;-64
2022/03/11 02:28:52;;;;;;;18.10;8.05;;;;;;;0.47;69.81;98567.84;5005299;28;20077;-64
2022/03/11 02:31:19;;;;;;;28.55;8.95;;;;;;;0.38;69.96;98572.84;5005751;28;20401;-64
2022/03/11 02:33:45;;;;;;;12.75;6.18;;;;;;;0.17;71.38;98562.06;5005341;28;20241;-64
2022/03/11 02:36:10;;;;;;;13.63;6.50;;;;;;;0.19;72.76;98566.44;5005422;28;20022;-64
2022/03/11 02:38:37;;;;;;;12.82;6.05;;;;;;;0.25;71.90;98570.88;5005409;28;20034;-64
2022/03/11 02:41:03;;;;;;;25.00;7.30;;;;;;;0.18;72.36;98558.66;5005565;28;20106;-64
2022/03/11 02:43:28;;;;;;;15.25;6.18;;;;;;;0.19;72.80;98560.41;5005592;28;20050;-64
2022/03/11 02:45:54;;;;;;;16.50;6.05;;;;;;;0.22;72.42;98557.88;5005389;28;20094;-64
2022/03/11 02:48:20;;;;;;;13.88;5.80;;;;;;;0.17;72.30;98551.72;5005504;28;20053;-64
2022/03/11 02:50:46;;;;;;;12.00;5.40;;;;;;;0.22;72.10;98552.69;5005465;28;20026;-64
2022/03/11 02:53:11;;;;;;;10.35;4.63;;;;;;;0.22;71.51;98552.69;5005353;28;20033;-63
2022/03/11 02:55:37;;;;;;;8.05;4.35;;;;;;;0.30;70.73;98558.88;5005549;28;20213;-64
2022/03/11 02:58:02;;;;;;;10.35;4.40;;;;;;;0.35;70.56;98546.91;5004378;28;20417;-64
2022/03/11 03:00:28;;;;;;;14.18;5.47;;;;;;;0.22;70.59;98555.28;5004936;28;20050;-64
2022/03/11 03:02:53;;;;;;;6.70;4.05;;;;;;;0.13;71.05;98544.75;5004843;28;20036;-64
2022/03/11 03:05:19;;;;;;;9.45;4.15;;;;;;;0.18;71.50;98550.91;5004875;28;20014;-63
2022/03/11 03:07:44;;;;;;;9.93;4.63;;;;;;;0.23;71.27;98551.84;5004995;28;20022;-64
2022/03/11 03:10:13;;;;;;;12.55;4.88;;;;;;;0.22;71.24;98545.78;5004648;28;20030;-64
2022/03/11 03:12:39;;;;;;;10.13;4.57;;;;;;;0.19;71.62;98550.03;5004824;28;20018;-64
2022/03/11 03:15:06;;;;;;;9.85;3.88;;;;;;;0.08;71.23;98556.72;5004434;28;20084;-64
2022/03/11 03:17:31;;;;;;;11.23;4.07;;;;;;;0.08;71.99;98560.19;5004693;28;20022;-64
2022/03/11 03:19:57;;;;;;;10.45;4.68;;;;;;;0.08;71.95;98559.28;5004703;28;20242;-64
2022/03/11 03:22:22;;;;;;;7.88;3.83;;;;;;;0.04;72.13;98556.66;5004443;28;20035;-63
2022/03/11 03:24:47;;;;;;;9.35;4.45;;;;;;;0.14;71.83;98556.84;5004535;28;20041;-64
2022/03/11 03:27:13;;;;;;;12.60;5.35;;;;;;;0.04;72.65;98556.66;5004380;28;20022;-64
2022/03/11 03:29:39;;;;;;;10.48;4.63;;;;;;;0.03;72.47;98544.56;5004479;28;20325;-64
2022/03/11 03:32:05;;;;;;;8.73;4.47;;;;;;;0.12;72.67;98549.03;5004715;28;20032;-64
2022/03/11 03:34:33;;;;;;;10.02;4.22;;;;;;;0.03;72.88;98548.00;5004194;28;20206;-63
2022/03/11 03:37:02;;;;;;;9.88;4.25;;;;;;;0.03;72.47;98547.16;5004385;28;20042;-64
2022/03/11 03:39:28;;;;;;;12.68;5.40;;;;;;;0.00;72.77;98554.84;5004754;28;20065;-64
2022/03/11 03:41:55;;;;;;;11.10;4.05;;;;;;;-0.14;72.97;98551.13;5005138;28;20093;-64
2022/03/11 03:44:21;;;;;;;9.95;4.63;;;;;;;-0.11;72.65;98566.69;5005201;28;20019;-64
2022/03/11 03:46:46;;;;;;;11.65;4.90;;;;;;;-0.17;72.87;98552.75;5004874;28;20026;-64
2022/03/11 03:49:12;;;;;;;13.18;5.68;;;;;;;-0.24;73.48;98554.34;5005332;28;20026;-64
2022/03/11 03:51:38;;;;;;;12.32;5.13;;;;;;;-0.38;74.03;98555.75;5004950;28;20032;-64
2022/03/11 03:54:10;;;;;;;11.10;6.07;;;;;;;-0.34;74.50;98557.56;5004952;28;20030;-64
2022/03/11 03:56:36;;;;;;;13.13;5.65;;;;;;;-0.34;74.35;98556.69;5005694;28;20117;-64
2022/03/11 03:59:04;;;;;;;8.85;3.92;;;;;;;-0.40;73.99;98565.19;5005292;28;20089;-64
2022/03/11 04:01:37;;;;;;;10.48;4.53;;;;;;;-0.50;74.75;98565.81;5005248;28;20026;-64
2022/03/11 04:04:04;;;;;;;9.10;4.88;;;;;;;-0.48;74.75;98556.38;4987431;28;20049;-64
2022/03/11 04:06:30;;;;;;;9.15;4.60;;;;;;;-0.51;74.90;98555.44;5005104;28;20089;-64
2022/03/11 04:08:57;;;;;;;10.02;4.30;;;;;;;-0.54;75.49;98564.00;5004974;28;20214;-64
2022/03/11 04:11:27;;;;;;;9.43;4.20;;;;;;;-0.57;75.33;98558.75;5008021;28;20026;-64
2022/03/11 04:13:53;;;;;;;8.75;3.83;;;;;;;-0.73;75.40;98555.81;5008911;28;20109;-64
2022/03/11 04:16:19;;;;;;;9.80;5.30;;;;;;;-0.66;75.63;98557.69;5008850;28;20026;-64
2022/03/11 04:18:48;;;;;;;7.57;4.65;;;;;;;-0.86;76.72;98554.63;5008711;28;20022;-64
2022/03/11 04:21:15;;;;;;;7.97;3.60;;;;;;;-0.76;77.12;98550.56;5008555;28;20025;-64
2022/03/11 04:23:41;;;;;;;11.07;5.30;;;;;;;-0.83;76.40;98546.06;5008546;28;20098;-64
2022/03/11 04:26:07;;;;;;;15.77;4.30;;;;;;;-0.75;76.76;98548.03;5008312;28;20401;-64
2022/03/11 04:28:33;;;;;;;8.82;4.45;;;;;;;-0.83;76.32;98549.53;5008412;28;20050;-64
2022/03/11 04:30:59;;;;;;;7.55;4.13;;;;;;;-0.85;76.84;98550.34;5008373;28;20360;-64
2022/03/11 04:33:25;;;;;;;11.60;4.47;;;;;;;-0.82;77.29;98540.09;5008632;28;20230;-64
2022/03/11 04:35:51;;;;;;;24.05;4.10;;;;;;;-0.83;76.86;98554.72;5007921;28;20018;-64
2022/03/11 04:38:16;;;;;;;7.10;4.20;;;;;;;-0.79;76.68;98550.50;5008347;28;20097;-64
2022/03/11 04:40:41;;;;;;;8.02;3.97;;;;;;;-0.85;76.97;98560.69;5007979;28;20038;-64
2022/03/11 04:43:07;;;;;;;12.13;5.28;;;;;;;-0.98;76.91;98559.50;5008060;28;20018;-64
2022/03/11 04:45:32;;;;;;;10.38;4.32;;;;;;;-0.91;77.10;98551.09;5007844;28;20045;-64
2022/03/11 04:47:58;;;;;;;11.52;4.93;;;;;;;-0.85;76.51;98546.03;5008151;28;20018;-64
2022/03/11 04:50:23;;;;;;;10.90;4.47;;;;;;;-0.89;76.81;98544.22;5007844;28;20358;-64
2022/03/11 04:52:49;;;;;;;15.88;4.20;;;;;;;-0.94;76.92;98548.44;5007957;28;20037;-64
2022/03/11 04:55:16;;;;;;;11.40;5.05;;;;;;;-1.01;77.17;98541.34;5007802;28;20023;-64
2022/03/11 04:57:42;;;;;;;18.05;6.07;;;;;;;-0.95;77.30;98546.66;5008034;28;20082;-64
2022/03/11 05:00:08;;;;;;;8.45;4.00;;;;;;;-0.97;77.09;98550.94;5007828;28;20030;-64
2022/03/11 05:02:34;;;;;;;7.90;3.65;;;;;;;-1.00;76.79;98555.13;5007825;28;20064;-64
2022/03/11 05:05:09;;;;;;;10.32;5.00;;;;;;;-1.10;77.13;98548.00;5007868;28;20101;-63
2022/03/11 05:07:35;;;;;;;9.70;5.10;;;;;;;-1.00;77.28;98555.13;5007756;28;20022;-63
2022/03/11 05:10:01;;;;;;;9.90;4.68;;;;;;;-1.03;76.95;98555.94;5007820;28;20026;-63
2022/03/11 05:12:27;;;;;;;7.70;3.78;;;;;;;-1.03;77.12;98550.78;5007661;28;20042;-63
2022/03/11 05:14:53;;;;;;;9.18;4.72;;;;;;;-1.14;77.15;98552.22;5007626;28;20034;-63
2022/03/11 05:17:19;;;;;;;8.23;4.03;;;;;;;-1.15;77.80;98552.16;5007601;28;20252;-63
2022/03/11 05:19:45;;;;;;;11.35;4.43;;;;;;;-1.16;77.79;98553.91;5007803;28;20024;-63
2022/03/11 05:22:11;;;;;;;15.50;4.32;;;;;;;-1.15;77.74;98550.47;5007266;28;20026;-63
2022/03/11 05:24:37;;;;;;;8.77;5.00;;;;;;;-1.22;77.93;98553.75;5007616;28;20022;-63
2022/03/11 05:27:03;;;;;;;16.70;5.35;;;;;;;-1.19;78.37;98559.00;5007658;28;20317;-63
2022/03/11 05:29:34;;;;;;;8.75;3.88;;;;;;;-1.17;78.16;98567.63;5007268;28;20014;-63
2022/03/11 05:32:00;;;;;;;8.20;3.83;;;;;;;-1.31;78.25;98563.84;5007595;28;20026;-63
2022/03/11 05:34:25;;;;;;;8.60;3.78;;;;;;;-1.26;78.26;98566.53;5007421;28;20023;-63
2022/03/11 05:36:51;;;;;;;7.63;4.15;;;;;;;-1.38;78.44;98563.63;5007185;28;20100;-63
2022/03/11 05:39:17;;;;;;;6.65;3.47;;;;;;;-1.32;78.74;98572.44;5007580;28;20254;-63
2022/03/11 05:41:42;;;;;;;7.22;3.85;;;;;;;-1.29;78.84;98567.34;5007597;28;20026;-63
2022/03/11 05:44:08;;;;;;;5.13;3.13;;;;;;;-1.33;78.70;98572.38;5007187;28;20030;-63
2022/03/11 05:46:33;;;;;;;10.65;5.70;;;;;;;-1.40;79.13;98568.75;5007466;28;20085;-63
2022/03/11 05:48:59;;;;;;;13.75;5.70;;;;;;;-1.42;79.48;98573.03;5007578;28;20030;-63
2022/03/11 05:51:24;;;;;;;11.70;5.65;;;;;;;-1.37;80.39;98574.00;5007477;28;20049;-63
2022/03/11 05:53:50;;;;;;;9.95;4.07;;;;;;;-1.35;79.88;98572.34;5008048;28;20363;-63
2022/03/11 05:56:15;;;;;;;11.70;5.07;;;;;;;-1.43;79.70;98578.16;5006910;28;20372;-64
2022/03/11 05:58:41;;;;;;;6.95;3.35;;;;;;;-1.34;79.97;98578.34;5006226;28;20037;-63
2022/03/11 06:01:06;;;;;;;9.55;4.88;;;;;;;-1.45;79.41;98585.84;5006271;28;20033;-63
2022/03/11 06:03:32;;;;;;;7.38;4.10;;;;;;;-1.30;79.42;98573.31;5006928;28;20030;-63
2022/03/11 06:05:57;;;;;;;7.40;4.38;;;;;;;-1.30;79.19;98573.31;5005104;28;20069;-63
2022/03/11 06:08:23;;;;;;;10.57;5.10;;;;;;;-1.24;79.21;98576.06;5005726;28;20030;-63
2022/03/11 06:10:48;;;;;;;7.88;3.72;;;;;;;-1.40;79.32;98568.75;5006228;28;20050;-63
2022/03/11 06:13:14;;;;;;;11.13;4.75;;;;;;;-1.29;79.64;98577.66;5006586;28;20026;-63
2022/03/11 06:15:41;;;;;;;8.82;4.50;;;;;;;-1.22;79.47;98579.56;5006095;28;20057;-63
2022/03/11 06:18:07;;;;;;;5.68;3.75;;;;;;;-1.22;79.39;98584.72;5006365;28;20022;-63
2022/03/11 06:20:32;;;;;;;11.32;5.35;;;;;;;-1.13;79.41;98574.63;5005435;28;20029;-63
2022/03/11 06:22:58;;;;;;;6.93;4.50;;;;;;;-0.91;79.37;98582.09;5005559;28;20026;-63
2022/03/11 06:25:24;;;;;;;7.85;3.90;;;;;;;-0.87;78.54;98578.72;5005303;28;20060;-63
2022/03/11 06:27:49;;;;;;;5.75;3.58;;;;;;;-0.78;78.44;98583.25;5005246;28;20018;-63
2022/03/11 06:30:15;;;;;;;8.23;4.88;;;;;;;-0.57;78.06;98579.44;5005092;28;20022;-63
2022/03/11 06:32:46;;;;;;;12.85;4.93;;;;;;;-0.40;78.05;98578.13;5003817;28;20090;-63
2022/03/11 06:35:13;;;;;;;6.30;4.22;;;;;;;-0.13;76.92;98576.13;5004611;28;20072;-63
2022/03/11 06:37:40;;;;;;;13.15;4.60;;;;;;;0.15;76.45;98584.47;5004622;28;20018;-63
2022/03/11 06:40:08;;;;;;;12.27;6.10;;;;;;;0.17;75.78;98577.59;5004662;28;20069;-63
2022/03/11 06:42:38;;;;;;;11.57;4.70;;;;;;;0.52;74.77;98576.56;5004788;28;20081;-63
2022/03/11 06:45:05;;;;;;;10.52;5.95;;;;;;;0.63;74.97;98580.25;5003881;28;20093;-63
2022/03/11 06:47:31;;;;;;;13.77;5.97;;;;;;;0.85;73.89;98582.38;5004746;28;20205;-63
2022/03/11 06:49:56;;;;;;;10.15;4.85;;;;;;;1.23;72.85;98586.50;5004616;28;20053;-63
2022/03/11 06:52:22;;;;;;;14.63;5.72;;;;;;;1.59;72.15;98584.47;5004580;28;20098;-63
2022/03/11 06:54:47;;;;;;;9.82;4.50;;;;;;;2.01;70.87;98588.53;5004682;28;20025;-63
2022/03/11 06:57:14;;;;;;;19.95;9.80;;;;;;;2.07;69.39;98573.03;5005168;28;20033;-64
2022/03/11 06:59:40;;;;;;;20.00;9.50;;;;;;;2.80;67.98;98585.13;5007059;28;20021;-64
2022/03/11 07:02:05;;;;;;;16.75;7.75;;;;;;;3.53;66.67;98582.31;5007118;28;20022;-64
2022/03/11 07:04:30;;;;;;;26.10;11.45;;;;;;;3.59;65.34;98582.38;5006798;28;20278;-64
2022/03/11 07:06:56;;;;;;;15.48;7.68;;;;;;;3.95;65.27;98587.81;5006393;28;20018;-65
2022/03/11 07:09:21;;;;;;;14.00;7.03;;;;;;;5.10;63.37;98593.44;5004878;28;20049;-67
2022/03/11 07:11:47;;;;;;;14.07;6.97;;;;;;;5.82;60.49;98590.88;5004929;28;20022;-66
2022/03/11 07:14:12;;;;;;;13.68;6.57;;;;;;;6.05;58.86;98586.47;5005051;28;20070;-66
2022/03/11 07:16:38;;;;;;;14.98;8.15;;;;;;;6.44;57.40;98602.03;5005043;28;20132;-66
2022/03/11 07:19:03;;;;;;;14.52;7.40;;;;;;;6.72;56.94;98594.03;5005006;28;20094;-66
2022/03/11 07:21:29;;;;;;;20.48;8.20;;;;;;;7.25;54.98;98591.13;5004933;28;20267;-66
2022/03/11 07:23:56;;;;;;;16.77;8.30;;;;;;;7.47;54.62;98587.44;5004937;28;20034;-66
2022/03/11 07:26:22;;;;;;;23.23;10.52;;;;;;;7.53;54.06;98582.16;5005031;28;20317;-66
2022/03/11 07:28:47;;;;;;;20.33;9.68;;;;;;;8.35;51.90;98588.38;5004847;28;20032;-66
2022/03/11 07:31:13;;;;;;;20.45;9.88;;;;;;;8.34;51.20;98575.28;5004796;28;20352;-66
2022/03/11 07:33:38;;;;;;;31.00;12.68;;;;;;;8.36;51.89;98579.63;5004811;28;20026;-66
2022/03/11 07:36:04;;;;;;;28.25;13.18;;;;;;;8.10;51.78;98565.06;5004777;28;20022;-66
2022/03/11 07:38:31;;;;;;;21.40;9.95;;;;;;;8.45;50.00;98563.78;5004742;28;20022;-66
2022/03/11 07:40:58;;;;;;;24.75;11.73;;;;;;;8.47;50.75;98556.78;5004951;28;20186;-66
2022/03/11 07:43:25;;;;;;;23.05;10.60;;;;;;;8.74;50.27;98572.16;5004886;28;20049;-66
2022/03/11 07:45:52;;;;;;;23.08;10.43;;;;;;;9.12;49.21;98552.38;5004388;28;20314;-66
2022/03/11 07:48:18;;;;;;;26.13;11.27;;;;;;;8.82;48.87;98542.34;5004584;28;20031;-66
2022/03/11 07:50:44;;;;;;;24.92;11.38;;;;;;;9.25;48.81;98546.03;5004620;28;20337;-66
2022/03/11 07:53:10;;;;;;;22.30;10.95;;;;;;;9.76;48.08;98545.19;5004559;28;20025;-66
2022/03/11 07:55:35;;;;;;;26.42;11.32;;;;;;;9.42;48.29;98537.00;5004547;28;20025;-66
2022/03/11 07:58:01;;;;;;;24.38;11.18;;;;;;;10.03;46.02;98539.44;5004592;28;20318;-66
2022/03/11 08:00:26;;;;;;;29.98;11.75;;;;;;;9.54;48.13;98541.19;5004582;28;20250;-66
2022/03/11 08:02:52;;;;;;;27.92;11.95;;;;;;;10.27;45.96;98539.00;5004678;28;20022;-66
2022/03/11 08:05:18;;;;;;;24.10;12.35;;;;;;;10.88;45.35;98539.44;5004673;28;20027;-66
2022/03/11 08:07:52;;;;;;;27.60;11.52;;;;;;;11.37;44.29;98550.63;5004832;28;20317;-66
2022/03/11 08:10:18;;;;;;;23.70;11.93;;;;;;;11.23;43.47;98544.78;5005196;28;20118;-66
2022/03/11 08:12:44;;;;;;;24.60;11.27;;;;;;;11.99;42.52;98560.47;5005722;28;20249;-66
2022/03/11 08:15:12;;;;;;;25.73;11.52;;;;;;;11.59;43.17;98558.84;5005674;28;20066;-66
2022/03/11 08:17:38;;;;;;;22.30;10.57;;;;;;;12.54;41.88;98566.00;5006498;28;20026;-66
2022/03/11 08:20:05;;;;;;;23.02;11.45;;;;;;;12.75;40.30;98565.38;5006548;28;20314;-66
2022/03/11 08:22:30;;;;;;;26.23;11.90;;;;;;;12.80;41.03;98571.41;5005859;28;20113;-66
2022/03/11 08:24:56;;;;;;;27.20;13.02;;;;;;;12.52;40.22;98572.22;5005944;28;20286;-66
2022/03/11 08:27:21;;;;;;;27.40;11.90;;;;;;;12.96;36.16;98564.75;5005981;28;20033;-66
2022/03/11 08:29:47;;;;;;;25.52;12.57;;;;;;;13.51;35.85;98568.38;5005994;28;20063;-66
2022/03/11 08:32:12;;;;;;;29.80;13.02;;;;;;;13.47;38.43;98575.53;5005870;28;20037;-66
2022/03/11 08:34:37;;;;;;;28.80;14.30;;;;;;;13.09;37.82;98590.84;5006018;28;20026;-67
2022/03/11 08:37:04;;;;;;;22.88;11.60;;;;;;;14.23;37.55;98608.28;5005564;28;20033;-67
2022/03/11 08:39:29;;;;;;;29.58;13.43;;;;;;;14.72;36.61;98608.31;5005037;28;20037;-67
2022/03/11 08:41:55;;;;;;;28.30;13.43;;;;;;;14.39;36.49;98598.88;5005299;28;20026;-67
2022/03/11 08:44:20;;;;;;;25.92;13.30;;;;;;;14.89;36.79;98595.28;5005547;28;20077;-67
2022/03/11 08:46:45;;;;;;;34.53;14.32;;;;;;;15.62;35.81;98594.22;5005126;28;20030;-67
2022/03/11 08:49:11;;;;;;;33.20;14.10;;;;;;;15.03;32.05;98590.34;5005023;28;20213;-67
2022/03/11 08:51:36;;;;;;;34.22;14.70;;;;;;;15.42;35.22;98580.88;5004880;28;20037;-67
2022/03/11 08:54:02;;;;;;;36.63;15.70;;;;;;;15.33;35.98;98591.81;5005133;28;20154;-67
2022/03/11 08:56:28;;;;;;;26.08;12.82;;;;;;;15.96;33.88;98589.28;5006315;28;20052;-67
2022/03/11 08:58:53;;;;;;;32.90;14.40;;;;;;;14.94;35.00;98572.16;5008595;28;20030;-67
2022/03/11 09:01:19;;;;;;;28.83;13.07;;;;;;;14.28;35.43;98577.22;5008777;28;20310;-67
2022/03/11 09:03:44;;;;;;;29.35;13.88;;;;;;;13.82;36.01;98569.06;5008683;28;20034;-67
2022/03/11 09:06:10;;;;;;;28.52;13.85;;;;;;;13.84;36.45;98561.97;5008712;28;20026;-67
2022/03/11 09:08:35;;;;;;;31.15;13.85;;;;;;;14.79;35.44;98549.75;5008889;28;20033;-67
2022/03/11 09:11:01;;;;;;;28.17;12.35;;;;;;;14.61;35.89;98538.94;5009018;28;20118;-67
2022/03/11 09:13:26;;;;;;;24.83;12.32;;;;;;;14.82;35.34;98541.69;5008842;28;20053;-67
2022/03/11 09:15:51;;;;;;;23.25;12.05;;;;;;;15.03;34.12;98537.34;5008523;28;20329;-66
2022/03/11 09:18:17;;;;;;;29.02;13.15;;;;;;;14.84;34.70;98546.91;5008739;28;20314;-66
2022/03/11 09:20:43;;;;;;;28.98;12.10;;;;;;;14.95;33.58;98542.06;5009028;28;20037;-67
2022/03/11 09:23:10;;;;;;;23.27;12.32;;;;;;;14.83;34.78;98547.81;5008667;28;20026;-67
2022/03/11 09:25:36;;;;;;;26.90;12.13;;;;;;;14.65;35.11;98536.13;5008438;28;20026;-67
2022/03/11 09:28:02;;;;;;;25.98;12.02;;;;;;;14.79;34.88;98548.84;5008617;28;20045;-67
2022/03/11 09:30:27;;;;;;;25.48;12.50;;;;;;;15.02;34.29;98551.50;5008303;28;20030;-67
2022/03/11 09:32:53;;;;;;;27.52;12.75;;;;;;;15.28;33.70;98540.75;5008179;28;20022;-67
2022/03/11 09:35:18;;;;;;;29.10;12.63;;;;;;;15.49;32.98;98550.53;5008351;28;20022;-67
2022/03/11 09:37:43;;;;;;;22.33;11.07;;;;;;;15.97;32.04;98543.22;5008288;28;20026;-67
2022/03/11 09:40:10;;;;;;;25.60;10.30;;;;;;;15.31;32.75;98535.31;5008246;28;20085;-67
2022/03/11 09:42:36;;;;;;;22.15;10.95;;;;;;;14.69;33.73;98529.78;5008521;28;20325;-67
2022/03/11 09:45:02;;;;;;;23.55;11.88;;;;;;;15.20;33.60;98548.16;5008459;28;20033;-67
2022/03/11 09:47:28;;;;;;;26.02;11.05;;;;;;;15.25;33.52;98540.84;5008092;28;20058;-67
2022/03/11 09:49:54;;;;;;;25.27;10.60;;;;;;;14.39;33.49;98540.63;5007914;28;20318;-67
2022/03/11 09:52:20;;;;;;;29.48;11.38;;;;;;;14.47;34.11;98517.41;5007540;28;20032;-67
2022/03/11 09:54:46;;;;;;;25.95;10.88;;;;;;;14.15;34.51;98520.31;5007235;28;20026;-66
2022/03/11 09:57:23;;;;;;;30.77;12.70;;;;;;;14.17;34.64;98508.75;5006940;28;20027;-66
2022/03/11 09:59:49;;;;;;;25.02;11.98;;;;;;;14.68;34.83;98511.31;5006799;28;20026;-66
2022/03/11 10:02:15;;;;;;;26.27;11.10;;;;;;;15.21;33.86;98512.75;5007671;28;20090;-66
2022/03/11 10:04:59;;;;;;;27.65;13.43;;;;;;;14.89;33.17;98510.50;5007213;28;20030;-67
2022/03/11 10:07:26;;;;;;;22.83;10.45;;;;;;;15.34;33.42;98503.38;5006125;28;20368;-67
2022/03/11 10:09:53;;;;;;;28.33;11.77;;;;;;;14.33;34.79;98494.06;5006573;28;20096;-67
2022/03/11 10:12:24;;;;;;;27.33;12.57;;;;;;;14.78;33.69;98510.03;5006629;28;20072;-66
2022/03/11 10:14:59;;;;;;;26.10;12.23;;;;;;;14.38;34.76;98501.84;5006402;28;20050;-66
2022/03/11 10:17:26;;;;;;;25.42;11.70;;;;;;;14.55;34.68;98499.44;5006283;28;20026;-66
2022/03/11 10:19:59;;;;;;;28.50;12.88;;;;;;;14.55;34.60;98487.06;5006326;28;20034;-67
2022/03/11 10:22:25;;;;;;;27.35;11.23;;;;;;;14.51;34.94;98487.22;5006340;28;20218;-66
2022/03/11 10:24:51;;;;;;;27.23;12.18;;;;;;;15.34;34.71;98487.47;5006215;28;20029;-66
2022/03/11 10:27:16;;;;;;;31.25;13.10;;;;;;;15.26;34.02;98484.28;5006255;28;20064;-66
2022/03/11 10:29:41;;;;;;;31.73;12.52;;;;;;;15.33;33.81;98483.09;5006456;28;20094;-66
2022/03/11 10:32:07;;;;;;;26.73;12.52;;;;;;;15.66;32.81;98479.06;5006252;28;20045;-66
2022/03/11 10:34:36;;;;;;;28.15;12.57;;;;;;;15.62;33.12;98472.16;5006524;28;20029;-66
2022/03/11 10:37:09;;;;;;;30.02;13.35;;;;;;;15.61;33.05;98481.06;5006453;28;20077;-66
2022/03/11 10:39:38;;;;;;;27.48;12.55;;;;;;;14.96;34.07;98474.88;5006183;28;20122;-66
2022/03/11 10:42:15;;;;;;;29.02;12.18;;;;;;;15.19;33.67;98473.03;5005923;28;20048;-66
2022/03/11 10:45:05;;;;;;;25.38;12.43;;;;;;;15.38;33.92;98467.03;5005858;28;20072;-66
2022/03/11 10:47:33;;;;;;;31.42;12.13;;;;;;;15.66;33.32;98463.16;5005155;28;20034;-67
2022/03/11 10:50:01;;;;;;;28.42;12.18;;;;;;;15.81;33.80;98459.84;5005701;28;20093;-67
2022/03/11 10:52:33;;;;;;;31.02;13.38;;;;;;;15.22;33.76;98457.94;5005543;28;20022;-67
2022/03/11 10:55:00;;;;;;;32.38;13.02;;;;;;;15.59;33.60;98456.38;5005840;28;20049;-67
2022/03/11 10:57:38;;;;;;;31.77;12.25;;;;;;;15.77;33.01;98454.75;5005410;28;20026;-67
2022/03/11 11:00:25;;;;;;;27.35;12.43;;;;;;;15.06;33.88;98439.13;5005344;28;20033;-67
2022/03/11 11:02:55;;;;;;;25.63;11.32;;;;;;;15.42;34.61;98440.31;5005336;28;20325;-67
2022/03/11 11:05:22;;;;;;;27.80;13.02;;;;;;;15.93;33.87;98439.88;5005501;28;20054;-67
2022/03/11 11:07:48;;;;;;;27.80;12.77;;;;;;;16.29;32.24;98428.47;5005316;28;20033;-67
2022/03/11 11:10:16;;;;;;;32.63;14.18;;;;;;;15.56;33.02;98427.31;5005045;28;20030;-67
2022/03/11 11:12:42;;;;;;;30.52;12.98;;;;;;;14.96;33.95;98416.56;5005325;28;20033;-66
2022/03/11 11:15:09;;;;;;;35.63;14.85;;;;;;;15.03;33.73;98415.41;5004941;28;20037;-66
2022/03/11 11:17:39;;;;;;;35.33;17.15;;;;;;;15.58;33.70;98417.53;5005046;28;20033;-66
2022/03/11 11:20:15;;;;;;;31.58;13.25;;;;;;;15.70;33.50;98401.09;5004535;28;20053;-66
2022/03/11 11:22:43;;;;;;;26.67;12.30;;;;;;;15.64;33.75;98392.50;5004933;28;20064;-66
2022/03/11 11:25:10;;;;;;;25.40;11.98;;;;;;;15.45;34.15;98389.81;5004782;28;20085;-66